TAF Text Data
IDs:
Format:
Raw Decoded Include METAR

Data at: 0738 UTC 18 Sep 2021

METAR for:KABI (Abilene Rgnl, TX, US)
Text:KABI 180652Z 13009KT 10SM OVC110 26/17 A3009 RMK AO2 SLP160 T02560172
Temperature: 25.6°C ( 78°F)
Dewpoint: 17.2°C ( 63°F) [RH = 60%]
Pressure (altimeter):30.09 inches Hg (1019.0 mb) [Sea level pressure: 1016.0 mb]
Winds:from the SE (130 degrees) at 10 MPH (9 knots; 4.6 m/s)
Visibility:10 or more sm (16+ km)
Ceiling:11000 feet AGL
Clouds: overcast cloud deck at 11000 feet AGL

TAF for:KABI (Abilene Rgnl, TX, US) issued at 0534 UTC 18 Sep 2021
Text:KABI 180534Z 1806/1906 11010KT P6SM SKC
Forecast period:0600 to 1600 UTC 18 September 2021
Forecast type:FROM: standard forecast or significant change
Winds:from the ESE (110 degrees) at 12 MPH (10 knots; 5.1 m/s)
Visibility:6 or more sm (10+ km)
Ceiling:at least 12,000 feet AGL
Clouds:clear skies
Text:FM181600 05008KT P6SM SKC
Forecast period:1600 UTC 18 September 2021 to 0600 UTC 19 September 2021
Forecast type:FROM: standard forecast or significant change
Winds:from the NE (50 degrees) at 9 MPH (8 knots; 4.1 m/s)
Visibility:6 or more sm (10+ km)
Ceiling:at least 12,000 feet AGL
Clouds:clear skies